LXGB Airport Information

Runway Information
Runway 09 Length 6000 ft width 150 ft
Elevation 10 ft Threshold 302 ft Heading 88
Runway 27 Length 6000 ft Width 150 ft
Elevation 11 ft Threshold 368 ft Heading 268
Airport Frequencies
Type A/D Name APP Frequency 122.8 MHZ
Type OPS Name GIB TALKDO Frequency 130.4 MHZ
Type TWR Name TWR Frequency 131.2 MHZ
Airport Navaids
Type TACAN Name Gibraltar Frequency 113600 KHZ
Airport Weather Information & NOTAM
ADDS - METARS form results

(0809 UTC 22 May 2018)
 
METAR text: LXGB 220750Z 27008KT CAVOK 17/13 Q1015 NOSIG
Conditions at: LXGB (GIBRALTAR (CIV/M, GI) observed 0750 UTC 22 May 2018
Temperature: 17.0°C (63°F)
Dewpoint: 13.0°C (55°F) [RH = 77%]
Pressure (altimeter): 29.97 inches Hg (1015.0 mb)
Winds: from the W (270 degrees) at 9 MPH (8 knots; 4.2 m/s)
Visibility: 6 or more miles (10+ km)
Ceiling: ceiling and visibility are OK
Clouds: unknown
Weather: no significant weather observed at this time